sensor_id;sensor_type;location;lat;lon;timestamp;P1;durP1;ratioP1;P2;durP2;ratioP2
24619;SDS011;12763;55.802;37.404;2024-03-02T00:01:14;67.53;;;29.42;;
24619;SDS011;12763;55.802;37.404;2024-03-02T00:03:40;75.35;;;30.85;;
24619;SDS011;12763;55.802;37.404;2024-03-02T00:06:08;70.28;;;30.70;;
24619;SDS011;12763;55.802;37.404;2024-03-02T00:08:35;76.07;;;31.55;;
24619;SDS011;12763;55.802;37.404;2024-03-02T00:11:01;68.82;;;28.13;;
24619;SDS011;12763;55.802;37.404;2024-03-02T00:13:30;72.90;;;29.33;;
24619;SDS011;12763;55.802;37.404;2024-03-02T00:15:58;75.85;;;30.52;;
24619;SDS011;12763;55.802;37.404;2024-03-02T00:18:25;62.15;;;29.98;;
24619;SDS011;12763;55.802;37.404;2024-03-02T00:20:54;65.28;;;28.77;;
24619;SDS011;12763;55.802;37.404;2024-03-02T00:23:24;67.30;;;29.77;;
24619;SDS011;12763;55.802;37.404;2024-03-02T00:25:53;68.10;;;28.77;;
24619;SDS011;12763;55.802;37.404;2024-03-02T00:31:08;75.22;;;29.75;;
24619;SDS011;12763;55.802;37.404;2024-03-02T00:36:08;68.90;;;29.52;;
24619;SDS011;12763;55.802;37.404;2024-03-02T00:38:34;69.22;;;29.35;;
24619;SDS011;12763;55.802;37.404;2024-03-02T00:41:07;73.55;;;27.40;;
24619;SDS011;12763;55.802;37.404;2024-03-02T00:46:07;60.20;;;29.00;;
24619;SDS011;12763;55.802;37.404;2024-03-02T00:48:33;73.43;;;27.90;;
24619;SDS011;12763;55.802;37.404;2024-03-02T00:51:03;68.03;;;30.17;;
24619;SDS011;12763;55.802;37.404;2024-03-02T00:53:30;66.45;;;28.98;;
24619;SDS011;12763;55.802;37.404;2024-03-02T00:55:58;66.90;;;27.90;;
24619;SDS011;12763;55.802;37.404;2024-03-02T00:58:25;67.82;;;28.83;;
24619;SDS011;12763;55.802;37.404;2024-03-02T01:00:51;76.38;;;30.83;;
24619;SDS011;12763;55.802;37.404;2024-03-02T01:03:16;71.82;;;29.23;;
24619;SDS011;12763;55.802;37.404;2024-03-02T01:05:43;67.45;;;28.50;;
24619;SDS011;12763;55.802;37.404;2024-03-02T01:08:10;78.00;;;29.30;;
24619;SDS011;12763;55.802;37.404;2024-03-02T01:10:36;68.75;;;28.38;;
24619;SDS011;12763;55.802;37.404;2024-03-02T01:13:02;69.63;;;28.38;;
24619;SDS011;12763;55.802;37.404;2024-03-02T01:15:28;62.35;;;26.27;;
24619;SDS011;12763;55.802;37.404;2024-03-02T01:17:54;70.00;;;27.85;;
24619;SDS011;12763;55.802;37.404;2024-03-02T01:20:20;70.10;;;27.98;;
24619;SDS011;12763;55.802;37.404;2024-03-02T01:22:45;66.35;;;27.98;;
24619;SDS011;12763;55.802;37.404;2024-03-02T01:25:12;66.25;;;27.00;;
24619;SDS011;12763;55.802;37.404;2024-03-02T01:27:39;61.80;;;28.58;;
24619;SDS011;12763;55.802;37.404;2024-03-02T01:30:05;69.60;;;28.20;;
24619;SDS011;12763;55.802;37.404;2024-03-02T01:32:31;73.55;;;28.48;;
24619;SDS011;12763;55.802;37.404;2024-03-02T01:34:57;66.75;;;26.83;;
24619;SDS011;12763;55.802;37.404;2024-03-02T01:37:23;65.13;;;26.95;;
24619;SDS011;12763;55.802;37.404;2024-03-02T01:39:49;73.75;;;29.15;;
24619;SDS011;12763;55.802;37.404;2024-03-02T01:42:15;71.13;;;27.17;;
24619;SDS011;12763;55.802;37.404;2024-03-02T01:44:41;58.72;;;26.80;;
24619;SDS011;12763;55.802;37.404;2024-03-02T01:47:07;61.60;;;27.75;;
24619;SDS011;12763;55.802;37.404;2024-03-02T01:49:33;69.03;;;26.63;;
24619;SDS011;12763;55.802;37.404;2024-03-02T01:51:59;59.70;;;27.00;;
24619;SDS011;12763;55.802;37.404;2024-03-02T01:54:25;64.03;;;26.88;;
24619;SDS011;12763;55.802;37.404;2024-03-02T01:56:51;64.70;;;27.70;;
24619;SDS011;12763;55.802;37.404;2024-03-02T01:59:17;73.07;;;29.38;;
24619;SDS011;12763;55.802;37.404;2024-03-02T02:01:44;63.13;;;26.33;;
24619;SDS011;12763;55.802;37.404;2024-03-02T02:04:10;61.80;;;26.90;;
24619;SDS011;12763;55.802;37.404;2024-03-02T02:06:36;68.43;;;27.50;;
24619;SDS011;12763;55.802;37.404;2024-03-02T02:09:02;69.70;;;26.67;;
24619;SDS011;12763;55.802;37.404;2024-03-02T02:11:28;65.45;;;27.27;;
24619;SDS011;12763;55.802;37.404;2024-03-02T02:13:54;68.35;;;27.48;;
24619;SDS011;12763;55.802;37.404;2024-03-02T02:16:21;69.32;;;27.90;;
24619;SDS011;12763;55.802;37.404;2024-03-02T02:18:47;66.95;;;26.35;;
24619;SDS011;12763;55.802;37.404;2024-03-02T02:21:13;60.00;;;25.73;;
24619;SDS011;12763;55.802;37.404;2024-03-02T02:23:39;61.50;;;27.52;;
24619;SDS011;12763;55.802;37.404;2024-03-02T02:26:05;62.42;;;26.23;;
24619;SDS011;12763;55.802;37.404;2024-03-02T02:28:31;68.63;;;27.15;;
24619;SDS011;12763;55.802;37.404;2024-03-02T02:30:57;63.97;;;26.65;;
24619;SDS011;12763;55.802;37.404;2024-03-02T02:33:23;67.30;;;26.65;;
24619;SDS011;12763;55.802;37.404;2024-03-02T02:35:49;65.65;;;25.98;;
24619;SDS011;12763;55.802;37.404;2024-03-02T02:38:15;63.83;;;27.58;;
24619;SDS011;12763;55.802;37.404;2024-03-02T02:40:41;65.07;;;28.45;;
24619;SDS011;12763;55.802;37.404;2024-03-02T02:43:07;58.83;;;26.23;;
24619;SDS011;12763;55.802;37.404;2024-03-02T02:45:32;61.92;;;26.10;;
24619;SDS011;12763;55.802;37.404;2024-03-02T02:47:58;65.63;;;26.88;;
24619;SDS011;12763;55.802;37.404;2024-03-02T02:50:26;69.30;;;26.55;;
24619;SDS011;12763;55.802;37.404;2024-03-02T02:52:52;65.60;;;26.40;;
24619;SDS011;12763;55.802;37.404;2024-03-02T02:55:18;66.72;;;26.50;;
24619;SDS011;12763;55.802;37.404;2024-03-02T02:57:44;60.47;;;26.10;;
24619;SDS011;12763;55.802;37.404;2024-03-02T03:00:12;69.22;;;27.48;;
24619;SDS011;12763;55.802;37.404;2024-03-02T03:02:43;71.00;;;27.95;;
24619;SDS011;12763;55.802;37.404;2024-03-02T03:05:11;65.50;;;28.98;;
24619;SDS011;12763;55.802;37.404;2024-03-02T03:07:39;65.95;;;27.90;;
24619;SDS011;12763;55.802;37.404;2024-03-02T03:10:05;58.95;;;26.35;;
24619;SDS011;12763;55.802;37.404;2024-03-02T03:12:36;66.22;;;26.55;;
24619;SDS011;12763;55.802;37.404;2024-03-02T03:15:02;60.85;;;26.73;;
24619;SDS011;12763;55.802;37.404;2024-03-02T03:17:31;58.55;;;26.70;;
24619;SDS011;12763;55.802;37.404;2024-03-02T03:19:57;60.03;;;26.02;;
24619;SDS011;12763;55.802;37.404;2024-03-02T03:22:23;66.03;;;27.30;;
24619;SDS011;12763;55.802;37.404;2024-03-02T03:24:49;67.03;;;27.02;;
24619;SDS011;12763;55.802;37.404;2024-03-02T03:27:15;60.47;;;25.70;;
24619;SDS011;12763;55.802;37.404;2024-03-02T03:29:40;71.85;;;28.83;;
24619;SDS011;12763;55.802;37.404;2024-03-02T03:32:06;70.93;;;25.70;;
24619;SDS011;12763;55.802;37.404;2024-03-02T03:34:33;60.50;;;26.90;;
24619;SDS011;12763;55.802;37.404;2024-03-02T03:36:59;63.10;;;27.67;;
24619;SDS011;12763;55.802;37.404;2024-03-02T03:39:25;66.25;;;27.48;;
24619;SDS011;12763;55.802;37.404;2024-03-02T03:41:51;68.45;;;27.38;;
24619;SDS011;12763;55.802;37.404;2024-03-02T03:44:17;78.15;;;28.90;;
24619;SDS011;12763;55.802;37.404;2024-03-02T03:46:43;78.40;;;31.45;;
24619;SDS011;12763;55.802;37.404;2024-03-02T03:49:08;71.15;;;27.13;;
24619;SDS011;12763;55.802;37.404;2024-03-02T03:51:34;78.10;;;31.35;;
24619;SDS011;12763;55.802;37.404;2024-03-02T03:54:01;70.00;;;29.08;;
24619;SDS011;12763;55.802;37.404;2024-03-02T03:56:27;74.50;;;29.45;;
24619;SDS011;12763;55.802;37.404;2024-03-02T03:58:53;76.88;;;29.85;;
24619;SDS011;12763;55.802;37.404;2024-03-02T04:01:18;72.40;;;30.88;;
24619;SDS011;12763;55.802;37.404;2024-03-02T04:03:45;76.93;;;31.17;;
24619;SDS011;12763;55.802;37.404;2024-03-02T04:06:10;76.22;;;29.92;;
24619;SDS011;12763;55.802;37.404;2024-03-02T04:08:36;75.10;;;30.58;;
24619;SDS011;12763;55.802;37.404;2024-03-02T04:11:02;67.43;;;29.38;;
24619;SDS011;12763;55.802;37.404;2024-03-02T04:13:29;67.93;;;28.88;;
24619;SDS011;12763;55.802;37.404;2024-03-02T04:15:55;79.20;;;31.17;;
24619;SDS011;12763;55.802;37.404;2024-03-02T04:18:21;84.90;;;28.90;;
24619;SDS011;12763;55.802;37.404;2024-03-02T04:20:47;82.78;;;29.38;;
24619;SDS011;12763;55.802;37.404;2024-03-02T04:23:13;69.88;;;29.38;;
24619;SDS011;12763;55.802;37.404;2024-03-02T04:25:39;73.43;;;29.83;;
24619;SDS011;12763;55.802;37.404;2024-03-02T04:28:04;74.95;;;29.77;;
24619;SDS011;12763;55.802;37.404;2024-03-02T04:30:30;71.35;;;28.90;;
24619;SDS011;12763;55.802;37.404;2024-03-02T04:32:56;74.88;;;29.63;;
24619;SDS011;12763;55.802;37.404;2024-03-02T04:35:22;71.32;;;28.27;;
24619;SDS011;12763;55.802;37.404;2024-03-02T04:37:48;74.38;;;30.77;;
24619;SDS011;12763;55.802;37.404;2024-03-02T04:40:14;76.22;;;29.88;;
24619;SDS011;12763;55.802;37.404;2024-03-02T04:42:40;63.15;;;30.50;;
24619;SDS011;12763;55.802;37.404;2024-03-02T04:45:06;63.80;;;28.90;;
24619;SDS011;12763;55.802;37.404;2024-03-02T04:47:33;75.32;;;30.20;;
24619;SDS011;12763;55.802;37.404;2024-03-02T04:49:59;78.20;;;31.10;;
24619;SDS011;12763;55.802;37.404;2024-03-02T04:52:24;76.95;;;30.15;;
24619;SDS011;12763;55.802;37.404;2024-03-02T04:54:50;78.63;;;31.15;;
24619;SDS011;12763;55.802;37.404;2024-03-02T04:57:35;83.43;;;31.55;;
24619;SDS011;12763;55.802;37.404;2024-03-02T05:00:01;80.63;;;31.48;;
24619;SDS011;12763;55.802;37.404;2024-03-02T05:02:29;70.80;;;30.33;;
24619;SDS011;12763;55.802;37.404;2024-03-02T05:04:55;76.32;;;31.40;;
24619;SDS011;12763;55.802;37.404;2024-03-02T05:07:21;81.28;;;31.40;;
24619;SDS011;12763;55.802;37.404;2024-03-02T05:09:47;77.72;;;30.67;;
24619;SDS011;12763;55.802;37.404;2024-03-02T05:12:13;77.93;;;32.83;;
24619;SDS011;12763;55.802;37.404;2024-03-02T05:14:42;79.45;;;32.45;;
24619;SDS011;12763;55.802;37.404;2024-03-02T05:17:08;84.13;;;34.13;;
24619;SDS011;12763;55.802;37.404;2024-03-02T05:19:34;73.65;;;33.55;;
24619;SDS011;12763;55.802;37.404;2024-03-02T05:22:00;72.72;;;32.05;;
24619;SDS011;12763;55.802;37.404;2024-03-02T05:24:26;78.55;;;33.08;;
24619;SDS011;12763;55.802;37.404;2024-03-02T05:26:53;82.65;;;36.47;;
24619;SDS011;12763;55.802;37.404;2024-03-02T05:29:19;82.80;;;33.15;;
24619;SDS011;12763;55.802;37.404;2024-03-02T05:31:46;81.18;;;34.58;;
24619;SDS011;12763;55.802;37.404;2024-03-02T05:34:12;80.70;;;32.83;;
24619;SDS011;12763;55.802;37.404;2024-03-02T05:36:38;80.40;;;35.20;;
24619;SDS011;12763;55.802;37.404;2024-03-02T05:39:04;75.70;;;32.25;;
24619;SDS011;12763;55.802;37.404;2024-03-02T05:41:34;89.90;;;34.15;;
24619;SDS011;12763;55.802;37.404;2024-03-02T05:44:01;85.05;;;35.47;;
24619;SDS011;12763;55.802;37.404;2024-03-02T05:46:27;92.47;;;36.65;;
24619;SDS011;12763;55.802;37.404;2024-03-02T05:48:53;82.03;;;32.80;;
24619;SDS011;12763;55.802;37.404;2024-03-02T05:51:19;92.13;;;35.30;;
24619;SDS011;12763;55.802;37.404;2024-03-02T05:53:45;88.03;;;34.33;;
24619;SDS011;12763;55.802;37.404;2024-03-02T05:56:10;83.13;;;35.53;;
24619;SDS011;12763;55.802;37.404;2024-03-02T05:58:37;82.68;;;34.05;;
24619;SDS011;12763;55.802;37.404;2024-03-02T06:01:22;76.70;;;35.38;;
24619;SDS011;12763;55.802;37.404;2024-03-02T06:03:54;82.60;;;34.58;;
24619;SDS011;12763;55.802;37.404;2024-03-02T06:06:21;85.20;;;36.58;;
24619;SDS011;12763;55.802;37.404;2024-03-02T06:08:48;92.18;;;37.38;;
24619;SDS011;12763;55.802;37.404;2024-03-02T06:11:13;85.93;;;37.67;;
24619;SDS011;12763;55.802;37.404;2024-03-02T06:13:39;95.85;;;38.17;;
24619;SDS011;12763;55.802;37.404;2024-03-02T06:16:24;96.05;;;41.28;;
24619;SDS011;12763;55.802;37.404;2024-03-02T06:18:50;105.13;;;40.80;;
24619;SDS011;12763;55.802;37.404;2024-03-02T06:21:16;98.80;;;41.85;;
24619;SDS011;12763;55.802;37.404;2024-03-02T06:23:43;106.22;;;42.28;;
24619;SDS011;12763;55.802;37.404;2024-03-02T06:26:09;104.43;;;42.63;;
24619;SDS011;12763;55.802;37.404;2024-03-02T06:28:35;107.72;;;44.75;;
24619;SDS011;12763;55.802;37.404;2024-03-02T06:31:01;96.78;;;43.05;;
24619;SDS011;12763;55.802;37.404;2024-03-02T06:33:27;112.90;;;46.28;;
24619;SDS011;12763;55.802;37.404;2024-03-02T06:35:54;109.28;;;45.45;;
24619;SDS011;12763;55.802;37.404;2024-03-02T06:38:19;107.47;;;44.58;;
24619;SDS011;12763;55.802;37.404;2024-03-02T06:40:45;105.45;;;42.28;;
24619;SDS011;12763;55.802;37.404;2024-03-02T06:43:11;108.40;;;44.08;;
24619;SDS011;12763;55.802;37.404;2024-03-02T06:45:37;98.43;;;43.03;;
24619;SDS011;12763;55.802;37.404;2024-03-02T06:48:03;101.10;;;42.20;;
24619;SDS011;12763;55.802;37.404;2024-03-02T06:50:29;103.68;;;45.17;;
24619;SDS011;12763;55.802;37.404;2024-03-02T06:52:55;104.57;;;43.38;;
24619;SDS011;12763;55.802;37.404;2024-03-02T06:55:21;107.35;;;44.53;;
24619;SDS011;12763;55.802;37.404;2024-03-02T06:57:47;99.80;;;42.60;;
24619;SDS011;12763;55.802;37.404;2024-03-02T07:00:13;97.40;;;41.13;;
24619;SDS011;12763;55.802;37.404;2024-03-02T07:02:39;101.97;;;42.05;;
24619;SDS011;12763;55.802;37.404;2024-03-02T07:05:07;106.05;;;43.20;;
24619;SDS011;12763;55.802;37.404;2024-03-02T07:07:34;108.53;;;42.88;;
24619;SDS011;12763;55.802;37.404;2024-03-02T07:10:00;99.78;;;40.60;;
24619;SDS011;12763;55.802;37.404;2024-03-02T07:12:27;88.13;;;39.72;;
24619;SDS011;12763;55.802;37.404;2024-03-02T07:14:53;96.57;;;40.53;;
24619;SDS011;12763;55.802;37.404;2024-03-02T07:17:23;90.07;;;40.00;;
24619;SDS011;12763;55.802;37.404;2024-03-02T07:19:50;100.70;;;39.80;;
24619;SDS011;12763;55.802;37.404;2024-03-02T07:22:16;95.97;;;40.15;;
24619;SDS011;12763;55.802;37.404;2024-03-02T07:24:42;90.25;;;39.97;;
24619;SDS011;12763;55.802;37.404;2024-03-02T07:27:12;84.50;;;37.72;;
24619;SDS011;12763;55.802;37.404;2024-03-02T07:29:39;97.82;;;41.42;;
24619;SDS011;12763;55.802;37.404;2024-03-02T07:32:06;100.13;;;40.63;;
24619;SDS011;12763;55.802;37.404;2024-03-02T07:34:33;95.43;;;39.38;;
24619;SDS011;12763;55.802;37.404;2024-03-02T07:36:59;98.15;;;40.50;;
24619;SDS011;12763;55.802;37.404;2024-03-02T07:39:26;86.57;;;38.05;;
24619;SDS011;12763;55.802;37.404;2024-03-02T07:41:52;95.93;;;39.08;;
24619;SDS011;12763;55.802;37.404;2024-03-02T07:44:18;98.05;;;38.88;;
24619;SDS011;12763;55.802;37.404;2024-03-02T07:46:45;87.75;;;38.55;;
24619;SDS011;12763;55.802;37.404;2024-03-02T07:49:12;88.85;;;39.13;;
24619;SDS011;12763;55.802;37.404;2024-03-02T07:51:42;89.75;;;38.38;;
24619;SDS011;12763;55.802;37.404;2024-03-02T07:54:08;88.95;;;38.88;;
24619;SDS011;12763;55.802;37.404;2024-03-02T07:56:34;85.93;;;37.03;;
24619;SDS011;12763;55.802;37.404;2024-03-02T07:59:01;85.35;;;37.60;;
24619;SDS011;12763;55.802;37.404;2024-03-02T08:01:27;93.85;;;40.03;;
24619;SDS011;12763;55.802;37.404;2024-03-02T08:03:59;96.32;;;40.30;;
24619;SDS011;12763;55.802;37.404;2024-03-02T08:06:26;84.80;;;37.40;;
24619;SDS011;12763;55.802;37.404;2024-03-02T08:08:59;83.30;;;38.60;;
24619;SDS011;12763;55.802;37.404;2024-03-02T08:11:26;83.85;;;37.95;;
24619;SDS011;12763;55.802;37.404;2024-03-02T08:13:53;86.65;;;37.92;;
24619;SDS011;12763;55.802;37.404;2024-03-02T08:16:21;81.72;;;37.83;;
24619;SDS011;12763;55.802;37.404;2024-03-02T08:18:49;90.45;;;38.33;;
24619;SDS011;12763;55.802;37.404;2024-03-02T08:21:15;87.82;;;38.53;;
24619;SDS011;12763;55.802;37.404;2024-03-02T08:23:42;79.82;;;36.10;;
24619;SDS011;12763;55.802;37.404;2024-03-02T08:26:08;82.97;;;37.97;;
24619;SDS011;12763;55.802;37.404;2024-03-02T08:28:35;83.82;;;38.75;;
24619;SDS011;12763;55.802;37.404;2024-03-02T08:31:06;95.22;;;37.80;;
24619;SDS011;12763;55.802;37.404;2024-03-02T08:33:32;86.53;;;36.70;;
24619;SDS011;12763;55.802;37.404;2024-03-02T08:35:59;83.40;;;35.85;;
24619;SDS011;12763;55.802;37.404;2024-03-02T08:38:25;83.55;;;36.63;;
24619;SDS011;12763;55.802;37.404;2024-03-02T08:40:51;82.18;;;37.03;;
24619;SDS011;12763;55.802;37.404;2024-03-02T08:43:17;86.07;;;36.40;;
24619;SDS011;12763;55.802;37.404;2024-03-02T08:45:43;79.63;;;35.67;;
24619;SDS011;12763;55.802;37.404;2024-03-02T08:48:10;83.88;;;35.50;;
24619;SDS011;12763;55.802;37.404;2024-03-02T08:50:36;83.63;;;36.88;;
24619;SDS011;12763;55.802;37.404;2024-03-02T08:53:05;75.50;;;35.90;;
24619;SDS011;12763;55.802;37.404;2024-03-02T08:55:50;79.40;;;35.22;;
24619;SDS011;12763;55.802;37.404;2024-03-02T08:58:16;79.70;;;35.28;;
24619;SDS011;12763;55.802;37.404;2024-03-02T09:00:42;80.82;;;34.75;;
24619;SDS011;12763;55.802;37.404;2024-03-02T09:03:08;72.93;;;34.22;;
24619;SDS011;12763;55.802;37.404;2024-03-02T09:05:34;73.28;;;34.67;;
24619;SDS011;12763;55.802;37.404;2024-03-02T09:08:00;85.53;;;36.38;;
24619;SDS011;12763;55.802;37.404;2024-03-02T09:10:26;76.20;;;35.63;;
24619;SDS011;12763;55.802;37.404;2024-03-02T09:12:52;77.72;;;35.10;;
24619;SDS011;12763;55.802;37.404;2024-03-02T09:15:17;79.15;;;35.45;;
24619;SDS011;12763;55.802;37.404;2024-03-02T09:17:43;77.22;;;34.08;;
24619;SDS011;12763;55.802;37.404;2024-03-02T09:20:10;81.60;;;35.17;;
24619;SDS011;12763;55.802;37.404;2024-03-02T09:22:36;79.80;;;34.97;;
24619;SDS011;12763;55.802;37.404;2024-03-02T09:25:02;76.68;;;34.88;;
24619;SDS011;12763;55.802;37.404;2024-03-02T09:27:29;76.60;;;34.97;;
24619;SDS011;12763;55.802;37.404;2024-03-02T09:29:55;74.97;;;34.28;;
24619;SDS011;12763;55.802;37.404;2024-03-02T09:32:21;84.97;;;35.00;;
24619;SDS011;12763;55.802;37.404;2024-03-02T09:34:47;82.10;;;35.03;;
24619;SDS011;12763;55.802;37.404;2024-03-02T09:37:13;86.25;;;36.97;;
24619;SDS011;12763;55.802;37.404;2024-03-02T09:39:40;90.18;;;39.03;;
24619;SDS011;12763;55.802;37.404;2024-03-02T09:42:05;89.70;;;39.53;;
24619;SDS011;12763;55.802;37.404;2024-03-02T09:44:32;88.95;;;40.00;;
24619;SDS011;12763;55.802;37.404;2024-03-02T09:46:58;85.38;;;39.83;;
24619;SDS011;12763;55.802;37.404;2024-03-02T09:49:24;92.13;;;41.42;;
24619;SDS011;12763;55.802;37.404;2024-03-02T09:51:50;99.13;;;40.50;;
24619;SDS011;12763;55.802;37.404;2024-03-02T09:54:16;95.70;;;41.78;;
24619;SDS011;12763;55.802;37.404;2024-03-02T09:56:44;101.85;;;42.45;;
24619;SDS011;12763;55.802;37.404;2024-03-02T09:59:10;97.03;;;43.60;;
24619;SDS011;12763;55.802;37.404;2024-03-02T10:01:36;99.32;;;43.25;;
24619;SDS011;12763;55.802;37.404;2024-03-02T10:04:02;89.40;;;42.30;;
24619;SDS011;12763;55.802;37.404;2024-03-02T10:06:28;97.32;;;44.38;;
24619;SDS011;12763;55.802;37.404;2024-03-02T10:08:55;98.40;;;43.97;;
24619;SDS011;12763;55.802;37.404;2024-03-02T10:14:05;106.70;;;44.10;;
24619;SDS011;12763;55.802;37.404;2024-03-02T10:16:38;95.85;;;44.42;;
24619;SDS011;12763;55.802;37.404;2024-03-02T10:19:17;93.85;;;42.92;;
24619;SDS011;12763;55.802;37.404;2024-03-02T10:21:44;104.78;;;44.95;;
24619;SDS011;12763;55.802;37.404;2024-03-02T10:24:17;90.22;;;43.53;;
24619;SDS011;12763;55.802;37.404;2024-03-02T10:26:43;93.78;;;43.17;;
24619;SDS011;12763;55.802;37.404;2024-03-02T10:29:09;95.43;;;42.00;;
24619;SDS011;12763;55.802;37.404;2024-03-02T10:31:39;93.63;;;38.85;;
24619;SDS011;12763;55.802;37.404;2024-03-02T10:34:07;98.28;;;43.13;;
24619;SDS011;12763;55.802;37.404;2024-03-02T10:36:33;101.28;;;42.88;;
24619;SDS011;12763;55.802;37.404;2024-03-02T10:39:03;94.78;;;42.08;;
24619;SDS011;12763;55.802;37.404;2024-03-02T10:41:33;95.85;;;42.50;;
24619;SDS011;12763;55.802;37.404;2024-03-02T10:44:04;88.75;;;37.80;;
24619;SDS011;12763;55.802;37.404;2024-03-02T10:46:32;88.45;;;37.88;;
24619;SDS011;12763;55.802;37.404;2024-03-02T10:48:59;89.13;;;39.70;;
24619;SDS011;12763;55.802;37.404;2024-03-02T10:51:26;83.25;;;37.55;;
24619;SDS011;12763;55.802;37.404;2024-03-02T10:53:54;83.13;;;36.00;;
24619;SDS011;12763;55.802;37.404;2024-03-02T10:56:21;80.55;;;35.05;;
24619;SDS011;12763;55.802;37.404;2024-03-02T11:01:36;77.30;;;33.15;;
24619;SDS011;12763;55.802;37.404;2024-03-02T11:04:04;70.43;;;30.90;;
24619;SDS011;12763;55.802;37.404;2024-03-02T11:06:34;79.00;;;32.20;;
24619;SDS011;12763;55.802;37.404;2024-03-02T11:09:05;76.13;;;32.33;;
24619;SDS011;12763;55.802;37.404;2024-03-02T11:11:36;74.25;;;31.88;;
24619;SDS011;12763;55.802;37.404;2024-03-02T11:14:07;66.07;;;29.80;;
24619;SDS011;12763;55.802;37.404;2024-03-02T11:16:37;77.60;;;30.92;;
24619;SDS011;12763;55.802;37.404;2024-03-02T11:19:05;70.57;;;30.77;;
24619;SDS011;12763;55.802;37.404;2024-03-02T11:21:34;73.78;;;31.67;;
24619;SDS011;12763;55.802;37.404;2024-03-02T11:27:09;65.88;;;29.42;;
24619;SDS011;12763;55.802;37.404;2024-03-02T11:32:19;70.63;;;30.90;;
24619;SDS011;12763;55.802;37.404;2024-03-02T11:34:47;72.38;;;31.38;;
24619;SDS011;12763;55.802;37.404;2024-03-02T11:37:18;66.43;;;29.60;;
24619;SDS011;12763;55.802;37.404;2024-03-02T11:39:51;67.95;;;30.80;;
24619;SDS011;12763;55.802;37.404;2024-03-02T11:42:16;72.15;;;33.28;;
24619;SDS011;12763;55.802;37.404;2024-03-02T11:44:46;73.60;;;31.35;;
24619;SDS011;12763;55.802;37.404;2024-03-02T11:47:14;73.97;;;31.63;;
24619;SDS011;12763;55.802;37.404;2024-03-02T11:49:43;65.90;;;32.30;;
24619;SDS011;12763;55.802;37.404;2024-03-02T11:52:13;68.30;;;33.28;;
24619;SDS011;12763;55.802;37.404;2024-03-02T11:54:41;73.18;;;31.60;;
24619;SDS011;12763;55.802;37.404;2024-03-02T11:57:17;68.45;;;32.17;;
24619;SDS011;12763;55.802;37.404;2024-03-02T11:59:45;71.28;;;32.17;;
24619;SDS011;12763;55.802;37.404;2024-03-02T12:02:14;67.53;;;30.88;;
24619;SDS011;12763;55.802;37.404;2024-03-02T12:04:49;71.43;;;31.58;;
24619;SDS011;12763;55.802;37.404;2024-03-02T12:07:19;65.07;;;30.35;;
24619;SDS011;12763;55.802;37.404;2024-03-02T12:09:47;67.97;;;30.60;;
24619;SDS011;12763;55.802;37.404;2024-03-02T12:12:14;72.80;;;30.83;;
24619;SDS011;12763;55.802;37.404;2024-03-02T12:14:50;70.43;;;30.85;;
24619;SDS011;12763;55.802;37.404;2024-03-02T12:17:17;65.68;;;29.85;;
24619;SDS011;12763;55.802;37.404;2024-03-02T12:19:44;61.97;;;29.23;;
24619;SDS011;12763;55.802;37.404;2024-03-02T12:22:10;76.50;;;33.05;;
24619;SDS011;12763;55.802;37.404;2024-03-02T12:24:36;68.53;;;31.75;;
24619;SDS011;12763;55.802;37.404;2024-03-02T12:27:03;66.30;;;30.63;;
24619;SDS011;12763;55.802;37.404;2024-03-02T12:29:30;80.13;;;32.25;;
24619;SDS011;12763;55.802;37.404;2024-03-02T12:31:56;72.60;;;31.20;;
24619;SDS011;12763;55.802;37.404;2024-03-02T12:34:22;67.38;;;29.60;;
24619;SDS011;12763;55.802;37.404;2024-03-02T12:36:48;71.35;;;29.50;;
24619;SDS011;12763;55.802;37.404;2024-03-02T12:39:18;79.80;;;30.55;;
24619;SDS011;12763;55.802;37.404;2024-03-02T12:41:48;71.47;;;30.95;;
24619;SDS011;12763;55.802;37.404;2024-03-02T12:44:19;64.18;;;30.20;;
24619;SDS011;12763;55.802;37.404;2024-03-02T12:46:45;74.40;;;30.67;;
24619;SDS011;12763;55.802;37.404;2024-03-02T12:49:12;66.15;;;31.13;;
24619;SDS011;12763;55.802;37.404;2024-03-02T12:51:57;70.90;;;30.48;;
24619;SDS011;12763;55.802;37.404;2024-03-02T12:54:24;63.60;;;29.70;;
24619;SDS011;12763;55.802;37.404;2024-03-02T12:56:52;69.20;;;30.58;;
24619;SDS011;12763;55.802;37.404;2024-03-02T12:59:20;76.18;;;32.10;;
24619;SDS011;12763;55.802;37.404;2024-03-02T13:01:52;69.75;;;30.17;;
24619;SDS011;12763;55.802;37.404;2024-03-02T13:04:24;74.45;;;31.15;;
24619;SDS011;12763;55.802;37.404;2024-03-02T13:06:51;69.75;;;29.95;;
24619;SDS011;12763;55.802;37.404;2024-03-02T13:09:19;73.03;;;29.80;;
24619;SDS011;12763;55.802;37.404;2024-03-02T13:11:46;64.85;;;28.50;;
24619;SDS011;12763;55.802;37.404;2024-03-02T13:14:13;66.35;;;29.10;;
24619;SDS011;12763;55.802;37.404;2024-03-02T13:16:39;67.63;;;28.35;;
24619;SDS011;12763;55.802;37.404;2024-03-02T13:19:08;68.78;;;30.90;;
24619;SDS011;12763;55.802;37.404;2024-03-02T13:21:35;77.63;;;31.30;;
24619;SDS011;12763;55.802;37.404;2024-03-02T13:24:01;71.20;;;30.98;;
24619;SDS011;12763;55.802;37.404;2024-03-02T13:26:27;71.38;;;31.15;;
24619;SDS011;12763;55.802;37.404;2024-03-02T13:28:53;72.18;;;31.35;;
24619;SDS011;12763;55.802;37.404;2024-03-02T13:31:19;75.15;;;32.30;;
24619;SDS011;12763;55.802;37.404;2024-03-02T13:33:44;69.10;;;30.13;;
24619;SDS011;12763;55.802;37.404;2024-03-02T13:36:10;65.95;;;31.02;;
24619;SDS011;12763;55.802;37.404;2024-03-02T13:38:36;61.75;;;28.45;;
24619;SDS011;12763;55.802;37.404;2024-03-02T13:41:02;62.03;;;28.38;;
24619;SDS011;12763;55.802;37.404;2024-03-02T13:43:28;78.70;;;30.30;;
24619;SDS011;12763;55.802;37.404;2024-03-02T13:45:57;62.83;;;28.55;;
24619;SDS011;12763;55.802;37.404;2024-03-02T13:48:24;66.20;;;28.63;;
24619;SDS011;12763;55.802;37.404;2024-03-02T13:50:53;68.95;;;29.42;;
24619;SDS011;12763;55.802;37.404;2024-03-02T13:53:19;65.55;;;29.23;;
24619;SDS011;12763;55.802;37.404;2024-03-02T13:55:46;69.35;;;28.50;;
24619;SDS011;12763;55.802;37.404;2024-03-02T13:58:12;61.05;;;28.05;;
24619;SDS011;12763;55.802;37.404;2024-03-02T14:00:38;61.13;;;27.60;;
24619;SDS011;12763;55.802;37.404;2024-03-02T14:03:05;69.20;;;29.25;;
24619;SDS011;12763;55.802;37.404;2024-03-02T14:05:32;70.88;;;29.50;;
24619;SDS011;12763;55.802;37.404;2024-03-02T14:07:58;70.43;;;29.20;;
24619;SDS011;12763;55.802;37.404;2024-03-02T14:10:27;61.35;;;25.33;;
24619;SDS011;12763;55.802;37.404;2024-03-02T14:12:54;69.78;;;28.10;;
24619;SDS011;12763;55.802;37.404;2024-03-02T14:15:21;67.43;;;27.30;;
24619;SDS011;12763;55.802;37.404;2024-03-02T14:17:47;63.67;;;27.85;;
24619;SDS011;12763;55.802;37.404;2024-03-02T14:20:14;65.20;;;27.10;;
24619;SDS011;12763;55.802;37.404;2024-03-02T14:22:40;66.70;;;26.23;;
24619;SDS011;12763;55.802;37.404;2024-03-02T14:25:06;53.67;;;25.52;;
24619;SDS011;12763;55.802;37.404;2024-03-02T14:27:32;61.80;;;25.17;;